sensor_id;sensor_type;location;lat;lon;timestamp;P1;durP1;ratioP1;P2;durP2;ratioP2
52668;SDS011;59898;52.786;6.892;2023-04-30T00:02:37;15.90;;;8.27;;
52668;SDS011;59898;52.786;6.892;2023-04-30T00:05:57;11.35;;;7.28;;
52668;SDS011;59898;52.786;6.892;2023-04-30T00:09:18;19.33;;;8.73;;
52668;SDS011;59898;52.786;6.892;2023-04-30T00:12:38;14.48;;;8.48;;
52668;SDS011;59898;52.786;6.892;2023-04-30T00:15:59;9.15;;;7.60;;
52668;SDS011;59898;52.786;6.892;2023-04-30T00:19:20;13.65;;;8.70;;
52668;SDS011;59898;52.786;6.892;2023-04-30T00:22:40;17.98;;;8.38;;
52668;SDS011;59898;52.786;6.892;2023-04-30T00:26:01;15.35;;;8.32;;
52668;SDS011;59898;52.786;6.892;2023-04-30T00:29:21;12.35;;;8.07;;
52668;SDS011;59898;52.786;6.892;2023-04-30T00:32:42;13.63;;;7.45;;
52668;SDS011;59898;52.786;6.892;2023-04-30T00:36:04;12.73;;;8.60;;
52668;SDS011;59898;52.786;6.892;2023-04-30T00:39:25;10.38;;;8.65;;
52668;SDS011;59898;52.786;6.892;2023-04-30T00:42:46;13.10;;;8.90;;
52668;SDS011;59898;52.786;6.892;2023-04-30T00:46:07;14.82;;;8.38;;
52668;SDS011;59898;52.786;6.892;2023-04-30T00:49:28;16.30;;;9.50;;
52668;SDS011;59898;52.786;6.892;2023-04-30T00:52:48;13.25;;;8.90;;
52668;SDS011;59898;52.786;6.892;2023-04-30T00:56:09;11.40;;;8.73;;
52668;SDS011;59898;52.786;6.892;2023-04-30T00:59:31;9.63;;;8.05;;
52668;SDS011;59898;52.786;6.892;2023-04-30T01:02:52;11.93;;;8.93;;
52668;SDS011;59898;52.786;6.892;2023-04-30T01:06:12;16.05;;;8.60;;
52668;SDS011;59898;52.786;6.892;2023-04-30T01:09:33;12.60;;;8.90;;
52668;SDS011;59898;52.786;6.892;2023-04-30T01:16:51;13.80;;;8.60;;
52668;SDS011;59898;52.786;6.892;2023-04-30T01:20:19;16.15;;;9.65;;
52668;SDS011;59898;52.786;6.892;2023-04-30T01:23:45;13.13;;;8.65;;
52668;SDS011;59898;52.786;6.892;2023-04-30T01:31:19;14.65;;;8.05;;
52668;SDS011;59898;52.786;6.892;2023-04-30T01:34:43;10.93;;;7.88;;
52668;SDS011;59898;52.786;6.892;2023-04-30T01:38:08;10.05;;;7.63;;
52668;SDS011;59898;52.786;6.892;2023-04-30T01:41:53;12.75;;;7.10;;
52668;SDS011;59898;52.786;6.892;2023-04-30T01:45:32;9.40;;;7.18;;
52668;SDS011;59898;52.786;6.892;2023-04-30T01:53:08;13.05;;;8.85;;
52668;SDS011;59898;52.786;6.892;2023-04-30T01:56:36;11.00;;;7.80;;
52668;SDS011;59898;52.786;6.892;2023-04-30T02:00:02;13.38;;;7.95;;
52668;SDS011;59898;52.786;6.892;2023-04-30T02:03:24;18.30;;;7.85;;
52668;SDS011;59898;52.786;6.892;2023-04-30T02:06:45;15.35;;;7.97;;
52668;SDS011;59898;52.786;6.892;2023-04-30T02:10:06;10.60;;;7.25;;
52668;SDS011;59898;52.786;6.892;2023-04-30T02:13:27;12.25;;;8.55;;
52668;SDS011;59898;52.786;6.892;2023-04-30T02:16:48;19.02;;;9.38;;
52668;SDS011;59898;52.786;6.892;2023-04-30T02:20:09;13.45;;;8.25;;
52668;SDS011;59898;52.786;6.892;2023-04-30T02:23:30;14.13;;;8.48;;
52668;SDS011;59898;52.786;6.892;2023-04-30T02:26:50;15.10;;;8.63;;
52668;SDS011;59898;52.786;6.892;2023-04-30T02:30:11;10.70;;;7.93;;
52668;SDS011;59898;52.786;6.892;2023-04-30T02:33:31;19.05;;;8.43;;
52668;SDS011;59898;52.786;6.892;2023-04-30T02:36:52;12.20;;;8.15;;
52668;SDS011;59898;52.786;6.892;2023-04-30T02:40:13;13.50;;;8.25;;
52668;SDS011;59898;52.786;6.892;2023-04-30T02:43:33;13.63;;;8.85;;
52668;SDS011;59898;52.786;6.892;2023-04-30T02:46:54;11.43;;;7.43;;
52668;SDS011;59898;52.786;6.892;2023-04-30T02:50:14;13.05;;;8.88;;
52668;SDS011;59898;52.786;6.892;2023-04-30T02:53:35;15.07;;;8.45;;
52668;SDS011;59898;52.786;6.892;2023-04-30T02:56:55;13.32;;;8.13;;
52668;SDS011;59898;52.786;6.892;2023-04-30T03:00:16;12.73;;;8.93;;
52668;SDS011;59898;52.786;6.892;2023-04-30T03:03:37;19.20;;;8.63;;
52668;SDS011;59898;52.786;6.892;2023-04-30T03:06:57;12.75;;;8.73;;
52668;SDS011;59898;52.786;6.892;2023-04-30T03:10:19;11.07;;;8.82;;
52668;SDS011;59898;52.786;6.892;2023-04-30T03:13:41;12.40;;;8.57;;
52668;SDS011;59898;52.786;6.892;2023-04-30T03:17:02;19.55;;;10.43;;
52668;SDS011;59898;52.786;6.892;2023-04-30T03:20:22;13.48;;;9.63;;
52668;SDS011;59898;52.786;6.892;2023-04-30T03:23:43;21.05;;;10.45;;
52668;SDS011;59898;52.786;6.892;2023-04-30T03:27:03;13.82;;;10.27;;
52668;SDS011;59898;52.786;6.892;2023-04-30T03:30:24;11.98;;;9.27;;
52668;SDS011;59898;52.786;6.892;2023-04-30T03:33:45;15.38;;;10.23;;
52668;SDS011;59898;52.786;6.892;2023-04-30T03:37:05;12.25;;;9.48;;
52668;SDS011;59898;52.786;6.892;2023-04-30T03:40:26;15.07;;;11.07;;
52668;SDS011;59898;52.786;6.892;2023-04-30T03:43:47;14.18;;;9.75;;
52668;SDS011;59898;52.786;6.892;2023-04-30T03:47:07;13.07;;;9.57;;
52668;SDS011;59898;52.786;6.892;2023-04-30T03:50:28;14.75;;;9.98;;
52668;SDS011;59898;52.786;6.892;2023-04-30T03:53:49;11.82;;;8.80;;
52668;SDS011;59898;52.786;6.892;2023-04-30T03:57:10;14.45;;;10.77;;
52668;SDS011;59898;52.786;6.892;2023-04-30T04:00:32;21.10;;;9.63;;
52668;SDS011;59898;52.786;6.892;2023-04-30T04:03:53;13.20;;;9.10;;
52668;SDS011;59898;52.786;6.892;2023-04-30T04:07:14;11.02;;;8.93;;
52668;SDS011;59898;52.786;6.892;2023-04-30T04:10:35;16.75;;;8.73;;
52668;SDS011;59898;52.786;6.892;2023-04-30T04:13:55;11.77;;;8.43;;
52668;SDS011;59898;52.786;6.892;2023-04-30T04:17:16;11.40;;;8.32;;
52668;SDS011;59898;52.786;6.892;2023-04-30T04:20:37;16.42;;;8.65;;
52668;SDS011;59898;52.786;6.892;2023-04-30T04:23:57;15.45;;;8.30;;
52668;SDS011;59898;52.786;6.892;2023-04-30T04:27:18;15.07;;;8.55;;
52668;SDS011;59898;52.786;6.892;2023-04-30T04:30:39;15.13;;;8.80;;
52668;SDS011;59898;52.786;6.892;2023-04-30T04:34:01;13.40;;;8.70;;
52668;SDS011;59898;52.786;6.892;2023-04-30T04:37:23;10.60;;;8.25;;
52668;SDS011;59898;52.786;6.892;2023-04-30T04:40:50;12.48;;;8.10;;
52668;SDS011;59898;52.786;6.892;2023-04-30T04:44:12;14.23;;;8.45;;
52668;SDS011;59898;52.786;6.892;2023-04-30T04:47:32;11.95;;;8.45;;
52668;SDS011;59898;52.786;6.892;2023-04-30T04:50:53;12.15;;;8.75;;
52668;SDS011;59898;52.786;6.892;2023-04-30T04:54:13;13.15;;;9.23;;
52668;SDS011;59898;52.786;6.892;2023-04-30T04:57:34;14.57;;;8.35;;
52668;SDS011;59898;52.786;6.892;2023-04-30T05:00:54;14.75;;;8.52;;
52668;SDS011;59898;52.786;6.892;2023-04-30T05:04:16;11.75;;;7.57;;
52668;SDS011;59898;52.786;6.892;2023-04-30T05:07:36;10.93;;;7.28;;
52668;SDS011;59898;52.786;6.892;2023-04-30T05:10:57;15.00;;;6.60;;
52668;SDS011;59898;52.786;6.892;2023-04-30T05:14:18;11.30;;;6.53;;
52668;SDS011;59898;52.786;6.892;2023-04-30T05:17:39;12.25;;;6.15;;
52668;SDS011;59898;52.786;6.892;2023-04-30T05:21:00;13.48;;;6.00;;
52668;SDS011;59898;52.786;6.892;2023-04-30T05:24:21;11.45;;;6.78;;
52668;SDS011;59898;52.786;6.892;2023-04-30T05:27:41;18.00;;;7.18;;
52668;SDS011;59898;52.786;6.892;2023-04-30T05:31:02;11.55;;;6.00;;
52668;SDS011;59898;52.786;6.892;2023-04-30T05:34:23;11.80;;;7.30;;
52668;SDS011;59898;52.786;6.892;2023-04-30T05:37:43;12.95;;;6.70;;
52668;SDS011;59898;52.786;6.892;2023-04-30T05:41:04;14.10;;;6.68;;
52668;SDS011;59898;52.786;6.892;2023-04-30T05:44:25;11.02;;;5.70;;
52668;SDS011;59898;52.786;6.892;2023-04-30T05:47:49;12.82;;;6.82;;
52668;SDS011;59898;52.786;6.892;2023-04-30T05:51:09;12.52;;;6.88;;
52668;SDS011;59898;52.786;6.892;2023-04-30T05:54:30;10.20;;;7.28;;
52668;SDS011;59898;52.786;6.892;2023-04-30T05:57:51;8.80;;;5.47;;
52668;SDS011;59898;52.786;6.892;2023-04-30T06:01:11;8.85;;;5.30;;
52668;SDS011;59898;52.786;6.892;2023-04-30T06:04:32;10.88;;;4.90;;
52668;SDS011;59898;52.786;6.892;2023-04-30T06:07:53;8.13;;;5.30;;
52668;SDS011;59898;52.786;6.892;2023-04-30T06:11:13;8.48;;;5.32;;
52668;SDS011;59898;52.786;6.892;2023-04-30T06:14:34;10.20;;;4.97;;
52668;SDS011;59898;52.786;6.892;2023-04-30T06:17:55;9.23;;;5.40;;
52668;SDS011;59898;52.786;6.892;2023-04-30T06:21:15;15.57;;;6.25;;
52668;SDS011;59898;52.786;6.892;2023-04-30T06:24:36;10.45;;;5.78;;
52668;SDS011;59898;52.786;6.892;2023-04-30T06:27:57;11.40;;;5.95;;
52668;SDS011;59898;52.786;6.892;2023-04-30T06:31:17;16.48;;;5.18;;
52668;SDS011;59898;52.786;6.892;2023-04-30T06:34:38;10.63;;;5.15;;
52668;SDS011;59898;52.786;6.892;2023-04-30T06:37:58;16.67;;;5.55;;
52668;SDS011;59898;52.786;6.892;2023-04-30T06:41:19;9.82;;;4.85;;
52668;SDS011;59898;52.786;6.892;2023-04-30T06:44:40;10.93;;;5.20;;
52668;SDS011;59898;52.786;6.892;2023-04-30T06:48:00;8.70;;;4.68;;
52668;SDS011;59898;52.786;6.892;2023-04-30T06:51:21;8.77;;;4.25;;
52668;SDS011;59898;52.786;6.892;2023-04-30T06:54:41;11.60;;;4.75;;
52668;SDS011;59898;52.786;6.892;2023-04-30T06:58:02;9.77;;;3.97;;
52668;SDS011;59898;52.786;6.892;2023-04-30T07:01:24;11.13;;;4.13;;
52668;SDS011;59898;52.786;6.892;2023-04-30T07:04:45;9.43;;;4.72;;
52668;SDS011;59898;52.786;6.892;2023-04-30T07:08:05;10.75;;;4.25;;
52668;SDS011;59898;52.786;6.892;2023-04-30T07:11:26;6.32;;;3.63;;
52668;SDS011;59898;52.786;6.892;2023-04-30T07:14:47;9.77;;;4.18;;
52668;SDS011;59898;52.786;6.892;2023-04-30T07:18:07;8.60;;;3.65;;
52668;SDS011;59898;52.786;6.892;2023-04-30T07:21:28;8.93;;;3.58;;
52668;SDS011;59898;52.786;6.892;2023-04-30T07:24:51;7.22;;;3.63;;
52668;SDS011;59898;52.786;6.892;2023-04-30T07:28:12;13.40;;;3.97;;
52668;SDS011;59898;52.786;6.892;2023-04-30T07:31:32;9.35;;;4.00;;
52668;SDS011;59898;52.786;6.892;2023-04-30T07:34:53;10.63;;;3.45;;
52668;SDS011;59898;52.786;6.892;2023-04-30T07:38:13;14.65;;;4.57;;
52668;SDS011;59898;52.786;6.892;2023-04-30T07:41:36;10.88;;;4.30;;
52668;SDS011;59898;52.786;6.892;2023-04-30T07:44:56;13.13;;;4.32;;
52668;SDS011;59898;52.786;6.892;2023-04-30T07:48:17;11.00;;;3.92;;
52668;SDS011;59898;52.786;6.892;2023-04-30T07:51:38;8.57;;;4.15;;
52668;SDS011;59898;52.786;6.892;2023-04-30T07:54:58;12.13;;;4.05;;
52668;SDS011;59898;52.786;6.892;2023-04-30T07:58:19;10.68;;;4.10;;
52668;SDS011;59898;52.786;6.892;2023-04-30T08:01:39;7.75;;;3.70;;
52668;SDS011;59898;52.786;6.892;2023-04-30T08:05:00;5.47;;;2.88;;
52668;SDS011;59898;52.786;6.892;2023-04-30T08:08:21;6.00;;;3.60;;
52668;SDS011;59898;52.786;6.892;2023-04-30T08:11:41;9.57;;;3.80;;
52668;SDS011;59898;52.786;6.892;2023-04-30T08:15:02;9.80;;;3.53;;
52668;SDS011;59898;52.786;6.892;2023-04-30T08:18:24;7.45;;;3.67;;
52668;SDS011;59898;52.786;6.892;2023-04-30T08:21:44;14.23;;;4.75;;
52668;SDS011;59898;52.786;6.892;2023-04-30T08:25:05;11.77;;;4.38;;
52668;SDS011;59898;52.786;6.892;2023-04-30T08:28:26;12.68;;;3.95;;
52668;SDS011;59898;52.786;6.892;2023-04-30T08:31:46;6.18;;;3.42;;
52668;SDS011;59898;52.786;6.892;2023-04-30T08:35:07;11.25;;;3.78;;
52668;SDS011;59898;52.786;6.892;2023-04-30T08:38:29;9.30;;;3.40;;
52668;SDS011;59898;52.786;6.892;2023-04-30T08:41:51;13.50;;;4.03;;
52668;SDS011;59898;52.786;6.892;2023-04-30T08:45:15;11.63;;;5.22;;
52668;SDS011;59898;52.786;6.892;2023-04-30T08:48:37;10.73;;;4.78;;
52668;SDS011;59898;52.786;6.892;2023-04-30T08:51:58;9.80;;;4.05;;
52668;SDS011;59898;52.786;6.892;2023-04-30T08:55:20;8.65;;;3.40;;
52668;SDS011;59898;52.786;6.892;2023-04-30T08:58:40;8.30;;;4.18;;
52668;SDS011;59898;52.786;6.892;2023-04-30T09:02:02;9.88;;;3.63;;
52668;SDS011;59898;52.786;6.892;2023-04-30T09:05:24;13.43;;;3.75;;
52668;SDS011;59898;52.786;6.892;2023-04-30T09:08:45;15.48;;;4.20;;
52668;SDS011;59898;52.786;6.892;2023-04-30T09:12:15;9.55;;;4.70;;
52668;SDS011;59898;52.786;6.892;2023-04-30T09:15:38;6.97;;;4.68;;
52668;SDS011;59898;52.786;6.892;2023-04-30T09:19:04;12.40;;;3.55;;
52668;SDS011;59898;52.786;6.892;2023-04-30T09:22:25;7.13;;;3.13;;
52668;SDS011;59898;52.786;6.892;2023-04-30T09:25:46;17.35;;;4.07;;
52668;SDS011;59898;52.786;6.892;2023-04-30T09:29:06;8.02;;;3.35;;
52668;SDS011;59898;52.786;6.892;2023-04-30T09:32:27;8.52;;;3.78;;
52668;SDS011;59898;52.786;6.892;2023-04-30T09:35:48;6.30;;;3.40;;
52668;SDS011;59898;52.786;6.892;2023-04-30T09:39:09;16.95;;;4.07;;
52668;SDS011;59898;52.786;6.892;2023-04-30T09:42:36;6.53;;;3.25;;
52668;SDS011;59898;52.786;6.892;2023-04-30T09:45:57;11.82;;;3.65;;
52668;SDS011;59898;52.786;6.892;2023-04-30T09:49:18;9.50;;;3.20;;
52668;SDS011;59898;52.786;6.892;2023-04-30T09:52:39;13.05;;;4.43;;
52668;SDS011;59898;52.786;6.892;2023-04-30T09:56:00;8.35;;;3.30;;
52668;SDS011;59898;52.786;6.892;2023-04-30T09:59:29;7.90;;;3.60;;
52668;SDS011;59898;52.786;6.892;2023-04-30T10:02:52;7.45;;;4.13;;
52668;SDS011;59898;52.786;6.892;2023-04-30T10:06:14;7.75;;;3.00;;
52668;SDS011;59898;52.786;6.892;2023-04-30T10:09:43;15.05;;;3.65;;
52668;SDS011;59898;52.786;6.892;2023-04-30T10:13:09;7.20;;;3.75;;
52668;SDS011;59898;52.786;6.892;2023-04-30T10:16:39;9.45;;;3.20;;
52668;SDS011;59898;52.786;6.892;2023-04-30T10:20:06;6.68;;;2.70;;
52668;SDS011;59898;52.786;6.892;2023-04-30T10:23:29;4.57;;;2.50;;
52668;SDS011;59898;52.786;6.892;2023-04-30T10:26:49;6.07;;;3.05;;
52668;SDS011;59898;52.786;6.892;2023-04-30T10:30:10;6.28;;;3.47;;
52668;SDS011;59898;52.786;6.892;2023-04-30T10:33:34;7.78;;;3.22;;
52668;SDS011;59898;52.786;6.892;2023-04-30T10:36:58;7.70;;;3.00;;
52668;SDS011;59898;52.786;6.892;2023-04-30T10:40:25;9.68;;;3.97;;
52668;SDS011;59898;52.786;6.892;2023-04-30T10:43:46;8.73;;;3.30;;
52668;SDS011;59898;52.786;6.892;2023-04-30T10:47:08;14.27;;;9.00;;
52668;SDS011;59898;52.786;6.892;2023-04-30T10:50:28;5.80;;;3.28;;
52668;SDS011;59898;52.786;6.892;2023-04-30T10:53:50;5.72;;;3.28;;
52668;SDS011;59898;52.786;6.892;2023-04-30T10:57:12;5.93;;;4.15;;
52668;SDS011;59898;52.786;6.892;2023-04-30T11:00:34;8.88;;;3.92;;
52668;SDS011;59898;52.786;6.892;2023-04-30T11:04:08;7.25;;;3.90;;
52668;SDS011;59898;52.786;6.892;2023-04-30T11:07:29;7.93;;;3.92;;
52668;SDS011;59898;52.786;6.892;2023-04-30T11:10:57;6.63;;;3.75;;
52668;SDS011;59898;52.786;6.892;2023-04-30T11:14:20;9.05;;;3.75;;
52668;SDS011;59898;52.786;6.892;2023-04-30T11:17:42;7.57;;;3.80;;
52668;SDS011;59898;52.786;6.892;2023-04-30T11:21:04;9.07;;;3.45;;
52668;SDS011;59898;52.786;6.892;2023-04-30T11:28:23;5.70;;;3.08;;
52668;SDS011;59898;52.786;6.892;2023-04-30T11:31:45;6.03;;;3.03;;
52668;SDS011;59898;52.786;6.892;2023-04-30T11:35:06;5.43;;;2.95;;
52668;SDS011;59898;52.786;6.892;2023-04-30T11:38:33;4.15;;;2.70;;
52668;SDS011;59898;52.786;6.892;2023-04-30T11:41:55;5.63;;;3.30;;
52668;SDS011;59898;52.786;6.892;2023-04-30T11:45:16;4.65;;;3.30;;
52668;SDS011;59898;52.786;6.892;2023-04-30T11:48:40;5.47;;;3.40;;
52668;SDS011;59898;52.786;6.892;2023-04-30T11:55:23;8.32;;;4.72;;
52668;SDS011;59898;52.786;6.892;2023-04-30T11:58:45;5.03;;;3.17;;
52668;SDS011;59898;52.786;6.892;2023-04-30T12:02:06;4.85;;;2.88;;
52668;SDS011;59898;52.786;6.892;2023-04-30T12:05:27;7.97;;;3.08;;
52668;SDS011;59898;52.786;6.892;2023-04-30T12:08:48;5.50;;;2.83;;
52668;SDS011;59898;52.786;6.892;2023-04-30T12:12:09;4.78;;;2.80;;
52668;SDS011;59898;52.786;6.892;2023-04-30T12:15:29;6.65;;;3.42;;
52668;SDS011;59898;52.786;6.892;2023-04-30T12:18:51;10.48;;;4.18;;
52668;SDS011;59898;52.786;6.892;2023-04-30T12:22:12;8.75;;;3.42;;
52668;SDS011;59898;52.786;6.892;2023-04-30T12:25:39;7.93;;;4.25;;
52668;SDS011;59898;52.786;6.892;2023-04-30T12:29:03;8.50;;;4.00;;
52668;SDS011;59898;52.786;6.892;2023-04-30T12:32:24;5.18;;;3.28;;
52668;SDS011;59898;52.786;6.892;2023-04-30T12:35:45;4.97;;;2.90;;
52668;SDS011;59898;52.786;6.892;2023-04-30T12:42:31;9.52;;;4.03;;
52668;SDS011;59898;52.786;6.892;2023-04-30T12:45:53;5.35;;;2.90;;
52668;SDS011;59898;52.786;6.892;2023-04-30T12:49:32;6.03;;;3.77;;
52668;SDS011;59898;52.786;6.892;2023-04-30T12:52:53;4.55;;;3.03;;
52668;SDS011;59898;52.786;6.892;2023-04-30T12:56:14;7.00;;;3.25;;
52668;SDS011;59898;52.786;6.892;2023-04-30T12:59:38;4.57;;;2.83;;
52668;SDS011;59898;52.786;6.892;2023-04-30T13:03:16;4.15;;;2.60;;
52668;SDS011;59898;52.786;6.892;2023-04-30T13:06:38;6.55;;;4.15;;
52668;SDS011;59898;52.786;6.892;2023-04-30T13:09:58;5.00;;;3.28;;
52668;SDS011;59898;52.786;6.892;2023-04-30T13:13:19;5.75;;;4.07;;
52668;SDS011;59898;52.786;6.892;2023-04-30T13:16:40;5.15;;;3.05;;
52668;SDS011;59898;52.786;6.892;2023-04-30T13:20:00;9.65;;;4.32;;
52668;SDS011;59898;52.786;6.892;2023-04-30T13:23:21;5.03;;;3.30;;
52668;SDS011;59898;52.786;6.892;2023-04-30T13:26:41;9.27;;;3.53;;
52668;SDS011;59898;52.786;6.892;2023-04-30T13:30:02;8.82;;;3.30;;
52668;SDS011;59898;52.786;6.892;2023-04-30T13:33:23;5.07;;;3.28;;
52668;SDS011;59898;52.786;6.892;2023-04-30T13:36:44;4.25;;;2.92;;
52668;SDS011;59898;52.786;6.892;2023-04-30T13:40:06;5.45;;;2.78;;
52668;SDS011;59898;52.786;6.892;2023-04-30T13:43:27;5.15;;;2.72;;
52668;SDS011;59898;52.786;6.892;2023-04-30T13:46:48;5.40;;;3.30;;
52668;SDS011;59898;52.786;6.892;2023-04-30T13:50:09;16.02;;;3.00;;
52668;SDS011;59898;52.786;6.892;2023-04-30T13:53:29;5.03;;;2.97;;
52668;SDS011;59898;52.786;6.892;2023-04-30T13:56:50;4.80;;;2.60;;
52668;SDS011;59898;52.786;6.892;2023-04-30T14:00:11;5.82;;;2.85;;
52668;SDS011;59898;52.786;6.892;2023-04-30T14:03:32;4.60;;;3.13;;
52668;SDS011;59898;52.786;6.892;2023-04-30T14:06:52;5.68;;;3.20;;
52668;SDS011;59898;52.786;6.892;2023-04-30T14:13:36;7.40;;;2.65;;
52668;SDS011;59898;52.786;6.892;2023-04-30T14:16:56;4.72;;;2.70;;
52668;SDS011;59898;52.786;6.892;2023-04-30T14:20:17;5.65;;;3.03;;
52668;SDS011;59898;52.786;6.892;2023-04-30T14:23:37;8.18;;;3.35;;
52668;SDS011;59898;52.786;6.892;2023-04-30T14:26:58;6.38;;;2.30;;
52668;SDS011;59898;52.786;6.892;2023-04-30T14:30:19;6.00;;;2.95;;
52668;SDS011;59898;52.786;6.892;2023-04-30T14:33:40;4.20;;;2.88;;
52668;SDS011;59898;52.786;6.892;2023-04-30T14:37:01;3.58;;;2.40;;
52668;SDS011;59898;52.786;6.892;2023-04-30T14:40:22;5.53;;;2.20;;
52668;SDS011;59898;52.786;6.892;2023-04-30T14:43:42;5.25;;;2.88;;
52668;SDS011;59898;52.786;6.892;2023-04-30T14:47:03;6.28;;;2.80;;
52668;SDS011;59898;52.786;6.892;2023-04-30T14:50:24;9.20;;;2.70;;
52668;SDS011;59898;52.786;6.892;2023-04-30T14:53:44;5.18;;;2.83;;
52668;SDS011;59898;52.786;6.892;2023-04-30T14:57:05;8.40;;;3.30;;
52668;SDS011;59898;52.786;6.892;2023-04-30T15:00:26;6.13;;;3.00;;
52668;SDS011;59898;52.786;6.892;2023-04-30T15:03:48;6.45;;;2.28;;
52668;SDS011;59898;52.786;6.892;2023-04-30T15:07:08;4.28;;;2.72;;
52668;SDS011;59898;52.786;6.892;2023-04-30T15:10:29;4.85;;;2.60;;
52668;SDS011;59898;52.786;6.892;2023-04-30T15:13:49;5.35;;;2.00;;
52668;SDS011;59898;52.786;6.892;2023-04-30T15:17:10;5.63;;;2.30;;
52668;SDS011;59898;52.786;6.892;2023-04-30T15:20:31;5.60;;;2.90;;
52668;SDS011;59898;52.786;6.892;2023-04-30T15:23:51;5.43;;;2.22;;
52668;SDS011;59898;52.786;6.892;2023-04-30T15:27:12;4.10;;;2.65;;
52668;SDS011;59898;52.786;6.892;2023-04-30T15:30:32;5.63;;;2.70;;
52668;SDS011;59898;52.786;6.892;2023-04-30T15:33:53;9.45;;;2.75;;
52668;SDS011;59898;52.786;6.892;2023-04-30T15:37:13;7.55;;;2.90;;
52668;SDS011;59898;52.786;6.892;2023-04-30T15:40:34;6.75;;;2.47;;
52668;SDS011;59898;52.786;6.892;2023-04-30T15:43:55;5.10;;;2.80;;
52668;SDS011;59898;52.786;6.892;2023-04-30T15:47:16;5.40;;;2.90;;
52668;SDS011;59898;52.786;6.892;2023-04-30T15:50:36;7.15;;;2.90;;
52668;SDS011;59898;52.786;6.892;2023-04-30T15:53:57;6.85;;;2.70;;
52668;SDS011;59898;52.786;6.892;2023-04-30T15:57:17;6.85;;;2.85;;
52668;SDS011;59898;52.786;6.892;2023-04-30T16:00:38;5.55;;;2.72;;
52668;SDS011;59898;52.786;6.892;2023-04-30T16:03:59;4.03;;;3.00;;
52668;SDS011;59898;52.786;6.892;2023-04-30T16:07:20;9.85;;;3.47;;
52668;SDS011;59898;52.786;6.892;2023-04-30T16:10:40;6.72;;;2.72;;
52668;SDS011;59898;52.786;6.892;2023-04-30T16:14:01;4.75;;;3.00;;
52668;SDS011;59898;52.786;6.892;2023-04-30T16:17:21;8.13;;;3.63;;
52668;SDS011;59898;52.786;6.892;2023-04-30T16:20:44;3.85;;;2.47;;
52668;SDS011;59898;52.786;6.892;2023-04-30T16:27:27;5.82;;;2.92;;
52668;SDS011;59898;52.786;6.892;2023-04-30T16:30:48;9.00;;;3.08;;
52668;SDS011;59898;52.786;6.892;2023-04-30T16:34:09;9.85;;;3.40;;
52668;SDS011;59898;52.786;6.892;2023-04-30T16:37:31;5.05;;;3.83;;
52668;SDS011;59898;52.786;6.892;2023-04-30T16:40:51;8.18;;;3.85;;
52668;SDS011;59898;52.786;6.892;2023-04-30T16:44:13;6.82;;;2.72;;
52668;SDS011;59898;52.786;6.892;2023-04-30T16:47:33;4.97;;;2.70;;
52668;SDS011;59898;52.786;6.892;2023-04-30T16:50:54;5.88;;;2.90;;
52668;SDS011;59898;52.786;6.892;2023-04-30T16:54:15;4.80;;;3.13;;
52668;SDS011;59898;52.786;6.892;2023-04-30T16:57:36;4.18;;;2.47;;
52668;SDS011;59898;52.786;6.892;2023-04-30T17:00:56;6.50;;;3.55;;
52668;SDS011;59898;52.786;6.892;2023-04-30T17:04:17;8.40;;;4.05;;
52668;SDS011;59898;52.786;6.892;2023-04-30T17:07:37;8.50;;;4.25;;
52668;SDS011;59898;52.786;6.892;2023-04-30T17:10:58;6.82;;;4.53;;
52668;SDS011;59898;52.786;6.892;2023-04-30T17:14:19;7.10;;;3.97;;
52668;SDS011;59898;52.786;6.892;2023-04-30T17:17:39;8.45;;;3.55;;
52668;SDS011;59898;52.786;6.892;2023-04-30T17:21:00;5.68;;;3.20;;
52668;SDS011;59898;52.786;6.892;2023-04-30T17:24:21;5.72;;;3.03;;
52668;SDS011;59898;52.786;6.892;2023-04-30T17:27:43;8.40;;;5.50;;
52668;SDS011;59898;52.786;6.892;2023-04-30T17:31:03;7.57;;;3.25;;
52668;SDS011;59898;52.786;6.892;2023-04-30T17:34:26;10.57;;;6.43;;
52668;SDS011;59898;52.786;6.892;2023-04-30T17:37:46;5.45;;;3.03;;
52668;SDS011;59898;52.786;6.892;2023-04-30T17:41:07;5.65;;;3.20;;
52668;SDS011;59898;52.786;6.892;2023-04-30T17:44:27;5.93;;;3.55;;
52668;SDS011;59898;52.786;6.892;2023-04-30T17:47:50;5.50;;;2.50;;
52668;SDS011;59898;52.786;6.892;2023-04-30T17:51:11;13.10;;;4.63;;
52668;SDS011;59898;52.786;6.892;2023-04-30T17:54:31;6.68;;;3.13;;
52668;SDS011;59898;52.786;6.892;2023-04-30T17:57:52;4.28;;;2.85;;
52668;SDS011;59898;52.786;6.892;2023-04-30T18:01:13;4.95;;;3.35;;
52668;SDS011;59898;52.786;6.892;2023-04-30T18:04:34;5.75;;;2.97;;
52668;SDS011;59898;52.786;6.892;2023-04-30T18:07:55;4.93;;;3.00;;
52668;SDS011;59898;52.786;6.892;2023-04-30T18:11:15;7.53;;;3.83;;
52668;SDS011;59898;52.786;6.892;2023-04-30T18:14:36;6.18;;;3.20;;
52668;SDS011;59898;52.786;6.892;2023-04-30T18:17:56;6.82;;;3.08;;
52668;SDS011;59898;52.786;6.892;2023-04-30T18:21:18;6.57;;;3.13;;
52668;SDS011;59898;52.786;6.892;2023-04-30T18:24:38;10.00;;;3.75;;
52668;SDS011;59898;52.786;6.892;2023-04-30T18:27:59;5.78;;;2.78;;
52668;SDS011;59898;52.786;6.892;2023-04-30T18:31:20;10.23;;;3.17;;
52668;SDS011;59898;52.786;6.892;2023-04-30T18:34:40;3.83;;;2.92;;
52668;SDS011;59898;52.786;6.892;2023-04-30T18:38:01;7.22;;;3.30;;
52668;SDS011;59898;52.786;6.892;2023-04-30T18:41:22;5.97;;;3.60;;
52668;SDS011;59898;52.786;6.892;2023-04-30T18:44:45;6.72;;;3.08;;
52668;SDS011;59898;52.786;6.892;2023-04-30T18:48:06;5.43;;;3.80;;
52668;SDS011;59898;52.786;6.892;2023-04-30T18:51:27;5.43;;;2.90;;
52668;SDS011;59898;52.786;6.892;2023-04-30T18:54:47;4.78;;;3.55;;
52668;SDS011;59898;52.786;6.892;2023-04-30T18:58:08;7.72;;;3.83;;
52668;SDS011;59898;52.786;6.892;2023-04-30T19:01:28;9.00;;;3.30;;
52668;SDS011;59898;52.786;6.892;2023-04-30T19:04:50;8.43;;;3.20;;
52668;SDS011;59898;52.786;6.892;2023-04-30T19:08:11;6.20;;;3.42;;
52668;SDS011;59898;52.786;6.892;2023-04-30T19:11:31;6.13;;;2.92;;
52668;SDS011;59898;52.786;6.892;2023-04-30T19:14:54;5.97;;;3.50;;
52668;SDS011;59898;52.786;6.892;2023-04-30T19:18:15;8.00;;;4.13;;
52668;SDS011;59898;52.786;6.892;2023-04-30T19:21:36;5.85;;;3.38;;
52668;SDS011;59898;52.786;6.892;2023-04-30T19:24:57;7.53;;;4.20;;
52668;SDS011;59898;52.786;6.892;2023-04-30T19:28:17;9.30;;;5.65;;
52668;SDS011;59898;52.786;6.892;2023-04-30T19:31:38;6.90;;;4.45;;
52668;SDS011;59898;52.786;6.892;2023-04-30T19:34:58;8.13;;;4.15;;
52668;SDS011;59898;52.786;6.892;2023-04-30T19:38:19;11.50;;;4.47;;
52668;SDS011;59898;52.786;6.892;2023-04-30T19:41:40;7.68;;;3.75;;
52668;SDS011;59898;52.786;6.892;2023-04-30T19:45:01;9.23;;;4.25;;
52668;SDS011;59898;52.786;6.892;2023-04-30T19:48:22;6.93;;;4.18;;
52668;SDS011;59898;52.786;6.892;2023-04-30T19:51:44;6.70;;;4.70;;
52668;SDS011;59898;52.786;6.892;2023-04-30T19:55:05;7.18;;;4.00;;
52668;SDS011;59898;52.786;6.892;2023-04-30T19:58:25;5.32;;;3.85;;
52668;SDS011;59898;52.786;6.892;2023-04-30T20:01:46;8.95;;;5.65;;
52668;SDS011;59898;52.786;6.892;2023-04-30T20:05:07;9.88;;;4.80;;
52668;SDS011;59898;52.786;6.892;2023-04-30T20:08:29;8.38;;;3.70;;
52668;SDS011;59898;52.786;6.892;2023-04-30T20:11:50;7.45;;;4.75;;
52668;SDS011;59898;52.786;6.892;2023-04-30T20:15:10;8.35;;;5.18;;
52668;SDS011;59898;52.786;6.892;2023-04-30T20:18:31;7.18;;;3.95;;
52668;SDS011;59898;52.786;6.892;2023-04-30T20:21:51;9.55;;;5.22;;
52668;SDS011;59898;52.786;6.892;2023-04-30T20:25:12;8.48;;;5.50;;
52668;SDS011;59898;52.786;6.892;2023-04-30T20:28:33;7.30;;;4.72;;
52668;SDS011;59898;52.786;6.892;2023-04-30T20:31:54;7.88;;;4.28;;
52668;SDS011;59898;52.786;6.892;2023-04-30T20:35:14;7.15;;;4.43;;
52668;SDS011;59898;52.786;6.892;2023-04-30T20:38:35;12.30;;;5.25;;